Danmark — OXDK — position and weather

sailwx.info

Track history (hours):
 
Tides and Currents Weather Stations Pressure Air Temp Water Temp Dewpoint Dewpoint Depression Visibility Wind Speed Wind Dir Waves Ship Positions

Danmark (Denmark)

Last reported at 2017-Jun-01 16:45 UTC. Time now 2017-Jun-27 10:24 UTC.
Position N 55°29' E 008°25'.
Warning: this ship's position is 25 days out of date.

Length 60 m; beam 10 m; draft 5 m.

Type: Sailing vessel. MMSI: 219500000.

Date/timePositionNaut miles runAvg speedWind from/ knotsBaromVisibWave heightAir tempDewpointWater temp
2017-Jun-01 16:45N 55°29' E 008°25'0 0.0
2017-Jun-01 16:18N 55°29' E 008°25'0 0.0
2017-Jun-01 15:54N 55°29' E 008°25'0 0.0
2017-Jun-01 15:30N 55°29' E 008°25'0 0.0
2017-Jun-01 14:42N 55°29' E 008°25'0 0.0
2017-Jun-01 14:21N 55°29' E 008°25'0 0.0
2017-Jun-01 13:24N 55°29' E 008°25'0 0.0
2017-Jun-01 12:51N 55°29' E 008°25'0 0.0
2017-Jun-01 12:30N 55°29' E 008°25'0 0.0
2017-Jun-01 12:00N 55°29' E 008°25'0 0.0
2017-Jun-01 11:24N 55°29' E 008°25'0 0.0
2017-Jun-01 11:00N 55°29' E 008°25'0 0.0
2017-Jun-01 10:27N 55°29' E 008°25'0 0.0
2017-Jun-01 09:57N 55°29' E 008°25'0 0.0
2017-Jun-01 09:30N 55°29' E 008°25'0 0.0
2017-Jun-01 09:00N 55°29' E 008°25'0 0.0
2017-Jun-01 08:30N 55°29' E 008°25'0 0.0
2017-Jun-01 07:42N 55°29' E 008°25'0 0.0
2017-Jun-01 07:18N 55°29' E 008°25'0 0.0
2017-Jun-01 06:54N 55°29' E 008°25'0 0.0
2017-Jun-01 06:30N 55°29' E 008°25'0 0.0
2017-Jun-01 06:00N 55°29' E 008°25'0 0.0
2017-Jun-01 05:18N 55°29' E 008°25'0 0.0
2017-Jun-01 05:00N 55°29' E 008°25'0 0.0
2017-Jun-01 04:21N 55°29' E 008°25'0 0.0
2017-Jun-01 03:51N 55°29' E 008°25'0 0.0
2017-Jun-01 03:24N 55°29' E 008°25'0 0.0
2017-Jun-01 03:00N 55°29' E 008°25'0 0.0
2017-Jun-01 02:21N 55°29' E 008°25'0 0.0
2017-Jun-01 02:00N 55°29' E 008°25'0 0.0
2017-Jun-01 01:30N 55°29' E 008°25'0 0.0
2017-Jun-01 00:57N 55°29' E 008°25'0 0.0
2017-Jun-01 00:30N 55°29' E 008°25'0 0.0
2017-May-31 23:57N 55°29' E 008°25'0 0.0
2017-May-31 23:27N 55°29' E 008°25'0 0.0
2017-May-31 22:57N 55°29' E 008°25'0 0.0
2017-May-31 22:30N 55°29' E 008°25'0 0.0
2017-May-31 22:00N 55°29' E 008°25'0 0.0
2017-May-31 21:30N 55°29' E 008°25'0 0.0
2017-May-31 21:00N 55°29' E 008°25'0 0.0
2017-May-31 20:21N 55°29' E 008°25'0 0.0
2017-May-31 20:00N 55°29' E 008°25'0 0.0
2017-May-31 19:27N 55°29' E 008°25'0 0.0
2017-May-31 18:33N 55°29' E 008°25'0 0.0
2017-May-31 18:18N 55°29' E 008°25'0 0.0
2017-May-31 17:57N 55°29' E 008°25'0 0.0
2017-May-31 17:30N 55°29' E 008°25'0 0.0
2017-May-31 16:51N 55°29' E 008°25'0 0.0
2017-May-31 16:24N 55°29' E 008°25'0 0.0
2017-May-31 16:00N 55°29' E 008°25'0 0.0
2017-May-31 15:21N 55°29' E 008°25'0 0.0
2017-May-31 14:54N 55°29' E 008°25'0 0.0
2017-May-31 13:51N 55°29' E 008°25'0 0.0
2017-May-31 13:24N 55°29' E 008°25'0 0.0
2017-May-31 13:00N 55°29' E 008°25'0 0.0
2017-May-31 12:30N 55°29' E 008°25'0 0.0
2017-May-31 11:57N 55°29' E 008°25'0 0.0
2017-May-31 11:30N 55°29' E 008°25'0 0.0
2017-May-31 11:00N 55°29' E 008°25'0 0.0
2017-May-31 10:18N 55°29' E 008°25'0 0.0
2017-May-31 09:57N 55°29' E 008°25'0 0.0
2017-May-31 09:30N 55°29' E 008°25'0 0.0
2017-May-31 09:00N 55°29' E 008°25'0 0.0
2017-May-31 08:30N 55°29' E 008°25'0 0.0
2017-May-31 07:54N 55°29' E 008°25'0 0.0
2017-May-31 07:30N 55°29' E 008°25'0 0.0
2017-May-31 07:00N 55°29' E 008°25'0 0.0
2017-May-31 06:30N 55°29' E 008°25'0 0.1
2017-May-31 06:00N 55°29' E 008°25'1 3.0
2017-May-31 05:30N 55°29' E 008°23'4 8.3
2017-May-31 05:00N 55°27' E 008°17'4 7.2
2017-May-31 04:30N 55°24' E 008°12'2 3.1
2017-May-31 03:59N 55°25' E 008°09'2 3.2
2017-May-31 03:30N 55°26' E 008°07'2 3.2
2017-May-31 03:00N 55°27' E 008°05'2 3.1
2017-May-31 02:30N 55°28' E 008°04'1 2.9
2017-May-31 02:00N 55°30' E 008°02'2 5.0
2017-May-31 01:30N 55°30' E 007°58'3 5.3
2017-May-31 01:00N 55°31' E 007°54'3 5.9
2017-May-31 00:30N 55°33' E 007°49'2 4.9
2017-May-31 00:00N 55°35' E 007°47'2 4.6
2017-May-30 23:29N 55°37' E 007°47'2 4.7
2017-May-30 23:00N 55°40' E 007°47'2 4.7
2017-May-30 22:30N 55°42' E 007°47'2 4.4
2017-May-30 22:00N 55°44' E 007°47'3 5.6
2017-May-30 21:30N 55°47' E 007°46'3 5.4
2017-May-30 20:59N 55°50' E 007°46'3 5.1
2017-May-30 20:30N 55°52' E 007°45'3 5.7
2017-May-30 19:57N 55°55' E 007°46'94 6.0
2017-May-30 04:18N 57°20' E 009°03'6 5.8
2017-May-30 03:16N 57°23' E 009°13'2 5.9
2017-May-30 02:54N 57°24' E 009°16'3 5.9
2017-May-30 02:26N 57°25' E 009°20'2 5.8
2017-May-30 02:00N 57°27' E 009°24'8 5.6
2017-May-30 00:38N 57°31' E 009°36'3 5.4
2017-May-29 23:59N 57°33' E 009°42'3 5.6
2017-May-29 23:29N 57°34' E 009°46'3 5.4
2017-May-29 23:00N 57°35' E 009°51'3 5.4
2017-May-29 22:28N 57°37' E 009°55'2 5.0
2017-May-29 21:59N 57°37' E 009°60'3 5.3
2017-May-29 21:30N 57°39' E 010°04'5 5.8
2017-May-29 20:41N 57°41' E 010°12'1 5.8
2017-May-29 20:30N 57°41' E 010°14'3 5.8
2017-May-29 19:59N 57°43' E 010°19'3 6.2
2017-May-29 19:29N 57°44' E 010°24'3 6.1
2017-May-29 19:00N 57°45' E 010°28'3 6.0
2017-May-29 18:30N 57°47' E 010°33'3 5.7
2017-May-29 18:00N 57°47' E 010°39'3 5.9
2017-May-29 17:30N 57°47' E 010°44'3 6.3
2017-May-29 17:00N 57°44' E 010°45'4 8.1
2017-May-29 16:31N 57°40' E 010°44'4 7.6
2017-May-29 15:58N 57°36' E 010°42'4 7.8
2017-May-29 15:30N 57°32' E 010°40'4 8.1
2017-May-29 14:58N 57°28' E 010°38'4 7.8
2017-May-29 14:30N 57°25' E 010°36'2 1.8
2017-May-29 13:13N 57°27' E 010°33'0 0.0
2017-May-29 12:49N 57°27' E 010°33'0 0.0
2017-May-29 12:25N 57°27' E 010°33'0 0.0
2017-May-29 10:55N 57°27' E 010°33'0 0.0
2017-May-29 10:28N 57°27' E 010°33'0 0.0
2017-May-29 09:19N 57°27' E 010°33'0 0.0
2017-May-29 08:58N 57°27' E 010°33'0 0.0
2017-May-29 07:46N 57°27' E 010°33'0 0.0
2017-May-29 07:22N 57°27' E 010°33'0 0.0
2017-May-29 06:58N 57°27' E 010°33'0 0.0
2017-May-29 06:28N 57°27' E 010°33'0 0.0
2017-May-29 05:52N 57°27' E 010°33'0 0.0
2017-May-29 05:25N 57°27' E 010°33'0 0.0
2017-May-29 04:58N 57°27' E 010°33'0 0.0
2017-May-29 04:19N 57°27' E 010°33'0 0.0
2017-May-29 03:55N 57°27' E 010°33'0 0.0
2017-May-29 02:55N 57°27' E 010°33'0 0.0
2017-May-29 02:25N 57°27' E 010°33'0 0.0
2017-May-29 01:52N 57°27' E 010°33'0 0.0
2017-May-29 01:03N 57°27' E 010°33'0 0.0
2017-May-29 00:51N 57°27' E 010°33'0 0.0
2017-May-29 00:29N 57°27' E 010°33'0 0.0
2017-May-29 00:00N 57°27' E 010°33'0 0.0
2017-May-28 23:15N 57°27' E 010°33'0 0.0
2017-May-28 23:00N 57°27' E 010°33'0 0.0
2017-May-28 22:30N 57°27' E 010°33'0 0.0
2017-May-28 21:51N 57°27' E 010°33'0 0.0
2017-May-28 21:30N 57°27' E 010°33'0 0.0
2017-May-28 20:39N 57°27' E 010°33'0 0.0
2017-May-28 20:30N 57°27' E 010°33'0 0.0
2017-May-28 19:57N 57°27' E 010°33'0 0.0
2017-May-28 19:30N 57°27' E 010°33'0 0.0
2017-May-28 19:00N 57°27' E 010°33'0 0.0
2017-May-28 18:27N 57°27' E 010°33'0 0.0
2017-May-28 18:00N 57°27' E 010°33'0 0.0
2017-May-28 17:30N 57°27' E 010°33'0 0.0
2017-May-28 17:00N 57°27' E 010°33'0 0.0
2017-May-28 16:12N 57°27' E 010°33'0 0.0
2017-May-28 16:00N 57°27' E 010°33'0 0.0
2017-May-28 15:24N 57°27' E 010°33'0 0.0
2017-May-28 15:00N 57°27' E 010°33'0 0.0
2017-May-28 13:57N 57°27' E 010°33'0 0.0
2017-May-28 13:24N 57°27' E 010°33'0 0.0
2017-May-28 13:00N 57°27' E 010°33'0 0.0
2017-May-28 12:30N 57°27' E 010°33'0 0.0
2017-May-28 11:54N 57°27' E 010°33'0 0.0
2017-May-28 11:30N 57°27' E 010°33'0 0.0
2017-May-28 11:00N 57°27' E 010°33'0 0.0
2017-May-28 10:27N 57°27' E 010°33'0 0.0
2017-May-28 09:57N 57°27' E 010°33'0 0.0
2017-May-28 09:27N 57°27' E 010°33'0 0.0
2017-May-28 08:51N 57°27' E 010°33'0 0.0
2017-May-28 08:18N 57°27' E 010°33'0 0.0
2017-May-28 07:51N 57°27' E 010°33'0 0.0
2017-May-28 07:24N 57°27' E 010°33'0 0.0
2017-May-28 06:45N 57°27' E 010°33'0 0.0
2017-May-28 06:15N 57°27' E 010°33'0 0.0
2017-May-28 06:00N 57°27' E 010°33'0 0.0
2017-May-28 05:30N 57°27' E 010°33'0 0.0
2017-May-28 05:00N 57°27' E 010°33'0 0.0
2017-May-28 04:30N 57°27' E 010°33'0 0.0
2017-May-28 03:58N 57°27' E 010°33'0 0.0
2017-May-28 02:26N 57°27' E 010°33'0 0.0
2017-May-28 01:38N 57°27' E 010°33'0 0.0
2017-May-28 01:23N 57°27' E 010°33'0 0.0
2017-May-28 00:59N 57°27' E 010°33'0 0.0
2017-May-28 00:29N 57°27' E 010°33'0 0.0
2017-May-27 23:19N 57°27' E 010°33'0 0.0
2017-May-27 22:58N 57°27' E 010°33'0 0.0
2017-May-27 22:25N 57°27' E 010°33'0 0.0
2017-May-27 21:43N 57°27' E 010°33'0 0.0
2017-May-27 21:28N 57°27' E 010°33'0 0.0
2017-May-27 20:19N 57°27' E 010°33'0 0.0
2017-May-27 19:49N 57°27' E 010°33'0 0.0
2017-May-27 19:22N 57°27' E 010°33'0 0.0
2017-May-27 18:58N 57°27' E 010°33'0 0.0
2017-May-27 17:13N 57°27' E 010°33'0 0.0
2017-May-27 16:49N 57°27' E 010°33'0 0.0
2017-May-27 16:25N 57°27' E 010°33'0 0.0
2017-May-27 15:34N 57°27' E 010°33'0 0.0
2017-May-27 15:25N 57°27' E 010°33'0 0.0
2017-May-27 14:58N 57°27' E 010°33'0 0.0
2017-May-27 14:19N 57°27' E 010°33'0 0.0
2017-May-27 13:19N 57°27' E 010°33'0 0.0
2017-May-27 12:25N 57°27' E 010°33'0 0.0
2017-May-27 11:52N 57°27' E 010°33'0 0.0
2017-May-27 10:25N 57°27' E 010°33'0 0.0
2017-May-27 09:13N 57°27' E 010°33'0 0.0
2017-May-27 08:46N 57°27' E 010°33'0 0.0
2017-May-27 08:25N 57°27' E 010°33'0 0.0
2017-May-27 07:04N 57°27' E 010°33'0 0.0
2017-May-27 06:34N 57°27' E 010°33'0 0.0
2017-May-27 06:22N 57°27' E 010°33'0 0.0
2017-May-27 05:40N 57°27' E 010°33'0 0.0
2017-May-27 05:28N 57°27' E 010°33'0 0.0
2017-May-27 04:52N 57°27' E 010°33'0 0.0
2017-May-27 03:52N 57°27' E 010°33'0 0.0
2017-May-27 03:13N 57°27' E 010°33'0 0.0
2017-May-27 02:40N 57°27' E 010°33'0 0.0
2017-May-27 02:22N 57°27' E 010°33'0 0.0
2017-May-27 01:52N 57°27' E 010°33'0 0.0
2017-May-27 01:10N 57°27' E 010°33'0 0.0
2017-May-27 00:46N 57°27' E 010°33'0 0.0
2017-May-27 00:04N 57°27' E 010°33'0 0.0
2017-May-26 23:55N 57°27' E 010°33'0 0.0
2017-May-26 23:22N 57°27' E 010°33'0 0.0
2017-May-26 22:58N 57°27' E 010°33'0 0.0
2017-May-26 22:28N 57°27' E 010°33'0 0.0
2017-May-26 21:52N 57°27' E 010°33'0 0.0
2017-May-26 21:22N 57°27' E 010°33'0 0.0
2017-May-26 20:52N 57°27' E 010°33'0 0.0
2017-May-26 20:28N 57°27' E 010°33'0 0.0
2017-May-26 19:40N 57°27' E 010°33'0 0.0
2017-May-26 19:28N 57°27' E 010°33'0 0.0
2017-May-26 18:28N 57°27' E 010°33'0 0.0
2017-May-26 17:46N 57°27' E 010°33'0 0.0
2017-May-26 17:25N 57°27' E 010°33'0 0.0
2017-May-26 15:58N 57°27' E 010°33'0 0.0
2017-May-26 15:25N 57°27' E 010°33'0 0.0
2017-May-26 14:55N 57°27' E 010°33'0 0.0
2017-May-26 13:43N 57°27' E 010°33'0 0.0
2017-May-26 13:28N 57°27' E 010°33'0 0.0
2017-May-26 12:37N 57°27' E 010°33'0 0.0
2017-May-26 12:28N 57°27' E 010°33'0 0.0
2017-May-26 11:58N 57°27' E 010°33'0 0.0
2017-May-26 11:22N 57°27' E 010°33'0 0.0
2017-May-26 10:55N 57°27' E 010°33'0 0.0
2017-May-26 10:28N 57°27' E 010°33'0 0.0
2017-May-26 09:58N 57°27' E 010°33'0 0.0
2017-May-26 09:13N 57°27' E 010°33'0 0.0
2017-May-26 08:58N 57°27' E 010°33'0 0.0
2017-May-26 08:13N 57°27' E 010°33'0 0.0
2017-May-26 07:43N 57°27' E 010°33'0 0.0
2017-May-26 06:13N 57°27' E 010°33'0 0.0
2017-May-26 05:55N 57°27' E 010°33'0 0.0
2017-May-26 05:22N 57°27' E 010°33'0 0.0
2017-May-26 04:58N 57°27' E 010°33'0 0.0
2017-May-26 04:04N 57°27' E 010°33'0 0.0
2017-May-26 02:55N 57°27' E 010°33'0 0.0
2017-May-26 02:19N 57°27' E 010°33'0 0.0
2017-May-26 01:58N 57°27' E 010°33'0 0.0
2017-May-26 00:40N 57°27' E 010°33'0 0.0
2017-May-25 23:40N 57°27' E 010°33'0 0.0
2017-May-25 23:25N 57°27' E 010°33'0 0.0
2017-May-25 22:58N 57°27' E 010°33'0 0.0
2017-May-25 22:28N 57°27' E 010°33'0 0.0
2017-May-25 21:04N 57°27' E 010°33'0 0.0
2017-May-25 20:40N 57°27' E 010°33'0 0.0
2017-May-25 20:25N 57°27' E 010°33'0 0.0
2017-May-25 19:40N 57°27' E 010°33'0 0.0
2017-May-25 19:19N 57°27' E 010°33'0 0.0
2017-May-25 18:37N 57°27' E 010°33'0 0.0
2017-May-25 18:19N 57°27' E 010°33'0 0.0
2017-May-25 17:58N 57°27' E 010°33'0 0.0
2017-May-25 17:25N 57°27' E 010°33'0 0.0
2017-May-25 16:49N 57°27' E 010°33'0 0.0
2017-May-25 16:16N 57°27' E 010°33'0 0.0
2017-May-25 15:22N 57°27' E 010°33'0 0.0
2017-May-25 14:34N 57°27' E 010°33'0 0.0
2017-May-25 14:28N 57°27' E 010°33'0 0.0
2017-May-25 12:49N 57°27' E 010°33'0 0.0
2017-May-25 12:13N 57°27' E 010°33'0 0.0
2017-May-25 11:58N 57°27' E 010°33'0 0.0
2017-May-25 11:28N 57°27' E 010°33'0 0.0
2017-May-25 10:49N 57°27' E 010°33'0 0.0
2017-May-25 10:28N 57°27' E 010°33'0 0.0
2017-May-25 09:52N 57°27' E 010°33'0 0.0
2017-May-25 09:16N 57°27' E 010°33'0 0.0
2017-May-25 08:55N 57°27' E 010°33'0 0.0
2017-May-25 08:25N 57°27' E 010°33'0 0.0
2017-May-25 07:58N 57°27' E 010°33'0 0.0
2017-May-25 07:28N 57°27' E 010°33'0 0.0
2017-May-25 06:55N 57°27' E 010°33'0 0.0
2017-May-25 06:25N 57°27' E 010°33'0 0.0
2017-May-25 05:58N 57°27' E 010°33'0 0.0
2017-May-25 05:04N 57°27' E 010°33'0 0.0
2017-May-25 04:58N 57°27' E 010°33'0 0.0
2017-May-25 04:28N 57°27' E 010°33'0 0.0
2017-May-25 03:43N 57°27' E 010°33'0 0.0
2017-May-25 03:13N 57°27' E 010°33'0 0.0
2017-May-25 02:22N 57°27' E 010°33'0 0.0
2017-May-25 01:46N 57°27' E 010°33'0 0.0
2017-May-25 01:28N 57°27' E 010°33'0 0.0
2017-May-25 00:46N 57°27' E 010°33'0 0.0
2017-May-25 00:28N 57°27' E 010°33'0 0.0
2017-May-24 23:52N 57°27' E 010°33'0 0.0
2017-May-24 23:28N 57°27' E 010°33'0 0.0
2017-May-24 22:58N 57°27' E 010°33'0 0.0
2017-May-24 21:43N 57°27' E 010°33'0 0.0
2017-May-24 21:22N 57°27' E 010°33'0 0.0
2017-May-24 20:55N 57°27' E 010°33'0 0.0
2017-May-24 20:28N 57°27' E 010°33'0 0.0
2017-May-24 19:58N 57°27' E 010°33'0 0.0
2017-May-24 19:22N 57°27' E 010°33'0 0.0
2017-May-24 18:58N 57°27' E 010°33'0 0.0
2017-May-24 18:28N 57°27' E 010°33'0 0.0
2017-May-24 17:58N 57°27' E 010°33'0 0.0
2017-May-24 17:28N 57°27' E 010°33'0 0.0
2017-May-24 16:58N 57°27' E 010°33'0 0.0
2017-May-24 16:28N 57°27' E 010°33'0 0.0
2017-May-24 15:46N 57°27' E 010°33'0 0.0
2017-May-24 14:58N 57°27' E 010°33'0 0.0
2017-May-24 14:28N 57°27' E 010°33'0 0.0
2017-May-24 13:28N 57°27' E 010°33'0 0.0
2017-May-24 12:37N 57°27' E 010°33'0 0.0
2017-May-24 12:25N 57°27' E 010°33'0 0.0
2017-May-24 11:43N 57°27' E 010°33'0 0.0
2017-May-24 11:27N 57°27' E 010°33'0 0.0
2017-May-24 09:09N 57°27' E 010°33'0 0.0
2017-May-24 09:00N 57°27' E 010°33'0 0.0
2017-May-24 08:15N 57°27' E 010°33'0 0.0
2017-May-24 07:54N 57°27' E 010°33'0 0.0
2017-May-24 07:30N 57°27' E 010°33'0 0.0
2017-May-24 07:00N 57°27' E 010°33'0 0.0
2017-May-24 06:21N 57°27' E 010°33'0 0.0
2017-May-24 05:54N 57°27' E 010°33'0 0.0
2017-May-24 04:24N 57°27' E 010°33'0 0.0
2017-May-24 03:54N 57°27' E 010°33'0 0.0
2017-May-24 03:30N 57°27' E 010°33'0 0.0
2017-May-24 03:00N 57°27' E 010°33'0 0.0
2017-May-24 02:27N 57°27' E 010°33'0 0.0
2017-May-24 01:03N 57°27' E 010°33'0 0.0
2017-May-24 01:00N 57°27' E 010°33'0 0.0
2017-May-24 00:27N 57°27' E 010°33'0 0.0
2017-May-23 23:57N 57°27' E 010°33'0 0.0
2017-May-23 23:24N 57°27' E 010°33'0 0.0
2017-May-23 22:00N 57°27' E 010°33'0 0.0
2017-May-23 21:09N 57°27' E 010°33'0 0.0
2017-May-23 21:00N 57°27' E 010°33'0 0.0
2017-May-23 20:03N 57°27' E 010°33'0 0.0
2017-May-23 19:54N 57°27' E 010°33'0 0.0
2017-May-23 18:48N 57°27' E 010°33'0 0.0
2017-May-23 16:30N 57°27' E 010°33'0 0.0
2017-May-23 15:57N 57°27' E 010°33'0 0.0
2017-May-23 15:30N 57°27' E 010°33'0 0.0
2017-May-23 14:15N 57°27' E 010°33'0 0.0
2017-May-23 13:24N 57°27' E 010°33'0 0.0
2017-May-23 12:24N 57°27' E 010°33'0 0.0
2017-May-23 12:00N 57°27' E 010°33'0 0.0
2017-May-23 11:18N 57°27' E 010°33'0 0.0
2017-May-23 10:00N 57°27' E 010°33'0 0.0
2017-May-23 09:30N 57°27' E 010°33'0 0.0
2017-May-23 07:36N 57°27' E 010°33'0 0.0
2017-May-23 07:27N 57°27' E 010°33'0 0.0
2017-May-23 06:57N 57°27' E 010°33'0 0.0
2017-May-23 06:30N 57°27' E 010°33'0 0.0
2017-May-23 05:54N 57°27' E 010°33'0 0.0
2017-May-23 04:00N 57°27' E 010°33'0 0.0
2017-May-23 03:27N 57°27' E 010°33'0 0.0
2017-May-23 02:57N 57°27' E 010°33'0 0.0
2017-May-23 02:30N 57°27' E 010°33'0 0.0
2017-May-23 02:00N 57°27' E 010°33'0 0.0
2017-May-22 23:24N 57°27' E 010°33'0 0.0
2017-May-22 22:48N 57°27' E 010°33'0 0.0
2017-May-22 21:54N 57°27' E 010°33'0 0.0
2017-May-22 21:21N 57°27' E 010°33'0 0.0
2017-May-22 20:57N 57°27' E 010°33'0 0.0
2017-May-22 20:30N 57°27' E 010°33'0 0.0
2017-May-22 20:00N 57°27' E 010°33'0 0.0
2017-May-22 19:21N 57°27' E 010°33'0 0.0
2017-May-22 19:00N 57°27' E 010°33'0 0.0
2017-May-22 18:30N 57°27' E 010°33'0 0.0
2017-May-22 17:51N 57°27' E 010°33'0 0.0
2017-May-22 17:30N 57°27' E 010°33'0 0.0
2017-May-22 17:00N 57°27' E 010°33'  
Track history (hours):
 
Tides and Currents Weather Stations Pressure Air Temp Water Temp Dewpoint Dewpoint Depression Visibility Wind Speed Wind Dir Waves Ship Positions

Danmark (Denmark)

Last reported at 2017-Jun-01 16:45 UTC. Time now 2017-Jun-27 10:24 UTC.
Position N 55°29' E 008°25'.
Warning: this ship's position is 25 days out of date.

Length 60 m; beam 10 m; draft 5 m.

Type: Sailing vessel. MMSI: 219500000.

Date/timePositionNaut miles runAvg speedWind from/ knotsBaromVisibWave heightAir tempDewpointWater temp
2017-Jun-01 16:45N 55°29' E 008°25'0 0.0
2017-Jun-01 16:18N 55°29' E 008°25'0 0.0
2017-Jun-01 15:54N 55°29' E 008°25'0 0.0
2017-Jun-01 15:30N 55°29' E 008°25'0 0.0
2017-Jun-01 14:42N 55°29' E 008°25'0 0.0
2017-Jun-01 14:21N 55°29' E 008°25'0 0.0
2017-Jun-01 13:24N 55°29' E 008°25'0 0.0
2017-Jun-01 12:51N 55°29' E 008°25'0 0.0
2017-Jun-01 12:30N 55°29' E 008°25'0 0.0
2017-Jun-01 12:00N 55°29' E 008°25'0 0.0
2017-Jun-01 11:24N 55°29' E 008°25'0 0.0
2017-Jun-01 11:00N 55°29' E 008°25'0 0.0
2017-Jun-01 10:27N 55°29' E 008°25'0 0.0
2017-Jun-01 09:57N 55°29' E 008°25'0 0.0
2017-Jun-01 09:30N 55°29' E 008°25'0 0.0
2017-Jun-01 09:00N 55°29' E 008°25'0 0.0
2017-Jun-01 08:30N 55°29' E 008°25'0 0.0
2017-Jun-01 07:42N 55°29' E 008°25'0 0.0
2017-Jun-01 07:18N 55°29' E 008°25'0 0.0
2017-Jun-01 06:54N 55°29' E 008°25'0 0.0
2017-Jun-01 06:30N 55°29' E 008°25'0 0.0
2017-Jun-01 06:00N 55°29' E 008°25'0 0.0
2017-Jun-01 05:18N 55°29' E 008°25'0 0.0
2017-Jun-01 05:00N 55°29' E 008°25'0 0.0
2017-Jun-01 04:21N 55°29' E 008°25'0 0.0
2017-Jun-01 03:51N 55°29' E 008°25'0 0.0
2017-Jun-01 03:24N 55°29' E 008°25'0 0.0
2017-Jun-01 03:00N 55°29' E 008°25'0 0.0
2017-Jun-01 02:21N 55°29' E 008°25'0 0.0
2017-Jun-01 02:00N 55°29' E 008°25'0 0.0
2017-Jun-01 01:30N 55°29' E 008°25'0 0.0
2017-Jun-01 00:57N 55°29' E 008°25'0 0.0
2017-Jun-01 00:30N 55°29' E 008°25'0 0.0
2017-May-31 23:57N 55°29' E 008°25'0 0.0
2017-May-31 23:27N 55°29' E 008°25'0 0.0
2017-May-31 22:57N 55°29' E 008°25'0 0.0
2017-May-31 22:30N 55°29' E 008°25'0 0.0
2017-May-31 22:00N 55°29' E 008°25'0 0.0
2017-May-31 21:30N 55°29' E 008°25'0 0.0
2017-May-31 21:00N 55°29' E 008°25'0 0.0
2017-May-31 20:21N 55°29' E 008°25'0 0.0
2017-May-31 20:00N 55°29' E 008°25'0 0.0
2017-May-31 19:27N 55°29' E 008°25'0 0.0
2017-May-31 18:33N 55°29' E 008°25'0 0.0
2017-May-31 18:18N 55°29' E 008°25'0 0.0
2017-May-31 17:57N 55°29' E 008°25'0 0.0
2017-May-31 17:30N 55°29' E 008°25'0 0.0
2017-May-31 16:51N 55°29' E 008°25'0 0.0
2017-May-31 16:24N 55°29' E 008°25'0 0.0
2017-May-31 16:00N 55°29' E 008°25'0 0.0
2017-May-31 15:21N 55°29' E 008°25'0 0.0
2017-May-31 14:54N 55°29' E 008°25'0 0.0
2017-May-31 13:51N 55°29' E 008°25'0 0.0
2017-May-31 13:24N 55°29' E 008°25'0 0.0
2017-May-31 13:00N 55°29' E 008°25'0 0.0
2017-May-31 12:30N 55°29' E 008°25'0 0.0
2017-May-31 11:57N 55°29' E 008°25'0 0.0
2017-May-31 11:30N 55°29' E 008°25'0 0.0
2017-May-31 11:00N 55°29' E 008°25'0 0.0
2017-May-31 10:18N 55°29' E 008°25'0 0.0
2017-May-31 09:57N 55°29' E 008°25'0 0.0
2017-May-31 09:30N 55°29' E 008°25'0 0.0
2017-May-31 09:00N 55°29' E 008°25'0 0.0
2017-May-31 08:30N 55°29' E 008°25'0 0.0
2017-May-31 07:54N 55°29' E 008°25'0 0.0
2017-May-31 07:30N 55°29' E 008°25'0 0.0
2017-May-31 07:00N 55°29' E 008°25'0 0.0
2017-May-31 06:30N 55°29' E 008°25'0 0.1
2017-May-31 06:00N 55°29' E 008°25'1 3.0
2017-May-31 05:30N 55°29' E 008°23'4 8.3
2017-May-31 05:00N 55°27' E 008°17'4 7.2
2017-May-31 04:30N 55°24' E 008°12'2 3.1
2017-May-31 03:59N 55°25' E 008°09'2 3.2
2017-May-31 03:30N 55°26' E 008°07'2 3.2
2017-May-31 03:00N 55°27' E 008°05'2 3.1
2017-May-31 02:30N 55°28' E 008°04'1 2.9
2017-May-31 02:00N 55°30' E 008°02'2 5.0
2017-May-31 01:30N 55°30' E 007°58'3 5.3
2017-May-31 01:00N 55°31' E 007°54'3 5.9
2017-May-31 00:30N 55°33' E 007°49'2 4.9
2017-May-31 00:00N 55°35' E 007°47'2 4.6
2017-May-30 23:29N 55°37' E 007°47'2 4.7
2017-May-30 23:00N 55°40' E 007°47'2 4.7
2017-May-30 22:30N 55°42' E 007°47'2 4.4
2017-May-30 22:00N 55°44' E 007°47'3 5.6
2017-May-30 21:30N 55°47' E 007°46'3 5.4
2017-May-30 20:59N 55°50' E 007°46'3 5.1
2017-May-30 20:30N 55°52' E 007°45'3 5.7
2017-May-30 19:57N 55°55' E 007°46'94 6.0
2017-May-30 04:18N 57°20' E 009°03'6 5.8
2017-May-30 03:16N 57°23' E 009°13'2 5.9
2017-May-30 02:54N 57°24' E 009°16'3 5.9
2017-May-30 02:26N 57°25' E 009°20'2 5.8
2017-May-30 02:00N 57°27' E 009°24'8 5.6
2017-May-30 00:38N 57°31' E 009°36'3 5.4
2017-May-29 23:59N 57°33' E 009°42'3 5.6
2017-May-29 23:29N 57°34' E 009°46'3 5.4
2017-May-29 23:00N 57°35' E 009°51'3 5.4
2017-May-29 22:28N 57°37' E 009°55'2 5.0
2017-May-29 21:59N 57°37' E 009°60'3 5.3
2017-May-29 21:30N 57°39' E 010°04'5 5.8
2017-May-29 20:41N 57°41' E 010°12'1 5.8
2017-May-29 20:30N 57°41' E 010°14'3 5.8
2017-May-29 19:59N 57°43' E 010°19'3 6.2
2017-May-29 19:29N 57°44' E 010°24'3 6.1
2017-May-29 19:00N 57°45' E 010°28'3 6.0
2017-May-29 18:30N 57°47' E 010°33'3 5.7
2017-May-29 18:00N 57°47' E 010°39'3 5.9
2017-May-29 17:30N 57°47' E 010°44'3 6.3
2017-May-29 17:00N 57°44' E 010°45'4 8.1
2017-May-29 16:31N 57°40' E 010°44'4 7.6
2017-May-29 15:58N 57°36' E 010°42'4 7.8
2017-May-29 15:30N 57°32' E 010°40'4 8.1
2017-May-29 14:58N 57°28' E 010°38'4 7.8
2017-May-29 14:30N 57°25' E 010°36'2 1.8
2017-May-29 13:13N 57°27' E 010°33'0 0.0
2017-May-29 12:49N 57°27' E 010°33'0 0.0
2017-May-29 12:25N 57°27' E 010°33'0 0.0
2017-May-29 10:55N 57°27' E 010°33'0 0.0
2017-May-29 10:28N 57°27' E 010°33'0 0.0
2017-May-29 09:19N 57°27' E 010°33'0 0.0
2017-May-29 08:58N 57°27' E 010°33'0 0.0
2017-May-29 07:46N 57°27' E 010°33'0 0.0
2017-May-29 07:22N 57°27' E 010°33'0 0.0
2017-May-29 06:58N 57°27' E 010°33'0 0.0
2017-May-29 06:28N 57°27' E 010°33'0 0.0
2017-May-29 05:52N 57°27' E 010°33'0 0.0
2017-May-29 05:25N 57°27' E 010°33'0 0.0
2017-May-29 04:58N 57°27' E 010°33'0 0.0
2017-May-29 04:19N 57°27' E 010°33'0 0.0
2017-May-29 03:55N 57°27' E 010°33'0 0.0
2017-May-29 02:55N 57°27' E 010°33'0 0.0
2017-May-29 02:25N 57°27' E 010°33'0 0.0
2017-May-29 01:52N 57°27' E 010°33'0 0.0
2017-May-29 01:03N 57°27' E 010°33'0 0.0
2017-May-29 00:51N 57°27' E 010°33'0 0.0
2017-May-29 00:29N 57°27' E 010°33'0 0.0
2017-May-29 00:00N 57°27' E 010°33'0 0.0
2017-May-28 23:15N 57°27' E 010°33'0 0.0
2017-May-28 23:00N 57°27' E 010°33'0 0.0
2017-May-28 22:30N 57°27' E 010°33'0 0.0
2017-May-28 21:51N 57°27' E 010°33'0 0.0
2017-May-28 21:30N 57°27' E 010°33'0 0.0
2017-May-28 20:39N 57°27' E 010°33'0 0.0
2017-May-28 20:30N 57°27' E 010°33'0 0.0
2017-May-28 19:57N 57°27' E 010°33'0 0.0
2017-May-28 19:30N 57°27' E 010°33'0 0.0
2017-May-28 19:00N 57°27' E 010°33'0 0.0
2017-May-28 18:27N 57°27' E 010°33'0 0.0
2017-May-28 18:00N 57°27' E 010°33'0 0.0
2017-May-28 17:30N 57°27' E 010°33'0 0.0
2017-May-28 17:00N 57°27' E 010°33'0 0.0
2017-May-28 16:12N 57°27' E 010°33'0 0.0
2017-May-28 16:00N 57°27' E 010°33'0 0.0
2017-May-28 15:24N 57°27' E 010°33'0 0.0
2017-May-28 15:00N 57°27' E 010°33'0 0.0
2017-May-28 13:57N 57°27' E 010°33'0 0.0
2017-May-28 13:24N 57°27' E 010°33'0 0.0
2017-May-28 13:00N 57°27' E 010°33'0 0.0
2017-May-28 12:30N 57°27' E 010°33'0 0.0
2017-May-28 11:54N 57°27' E 010°33'0 0.0
2017-May-28 11:30N 57°27' E 010°33'0 0.0
2017-May-28 11:00N 57°27' E 010°33'0 0.0
2017-May-28 10:27N 57°27' E 010°33'0 0.0
2017-May-28 09:57N 57°27' E 010°33'0 0.0
2017-May-28 09:27N 57°27' E 010°33'0 0.0
2017-May-28 08:51N 57°27' E 010°33'0 0.0
2017-May-28 08:18N 57°27' E 010°33'0 0.0
2017-May-28 07:51N 57°27' E 010°33'0 0.0
2017-May-28 07:24N 57°27' E 010°33'0 0.0
2017-May-28 06:45N 57°27' E 010°33'0 0.0
2017-May-28 06:15N 57°27' E 010°33'0 0.0
2017-May-28 06:00N 57°27' E 010°33'0 0.0
2017-May-28 05:30N 57°27' E 010°33'0 0.0
2017-May-28 05:00N 57°27' E 010°33'0 0.0
2017-May-28 04:30N 57°27' E 010°33'0 0.0
2017-May-28 03:58N 57°27' E 010°33'0 0.0
2017-May-28 02:26N 57°27' E 010°33'0 0.0
2017-May-28 01:38N 57°27' E 010°33'0 0.0
2017-May-28 01:23N 57°27' E 010°33'0 0.0
2017-May-28 00:59N 57°27' E 010°33'0 0.0
2017-May-28 00:29N 57°27' E 010°33'0 0.0
2017-May-27 23:19N 57°27' E 010°33'0 0.0
2017-May-27 22:58N 57°27' E 010°33'0 0.0
2017-May-27 22:25N 57°27' E 010°33'0 0.0
2017-May-27 21:43N 57°27' E 010°33'0 0.0
2017-May-27 21:28N 57°27' E 010°33'0 0.0
2017-May-27 20:19N 57°27' E 010°33'0 0.0
2017-May-27 19:49N 57°27' E 010°33'0 0.0
2017-May-27 19:22N 57°27' E 010°33'0 0.0
2017-May-27 18:58N 57°27' E 010°33'0 0.0
2017-May-27 17:13N 57°27' E 010°33'0 0.0
2017-May-27 16:49N 57°27' E 010°33'0 0.0
2017-May-27 16:25N 57°27' E 010°33'0 0.0
2017-May-27 15:34N 57°27' E 010°33'0 0.0
2017-May-27 15:25N 57°27' E 010°33'0 0.0
2017-May-27 14:58N 57°27' E 010°33'0 0.0
2017-May-27 14:19N 57°27' E 010°33'0 0.0
2017-May-27 13:19N 57°27' E 010°33'0 0.0
2017-May-27 12:25N 57°27' E 010°33'0 0.0
2017-May-27 11:52N 57°27' E 010°33'0 0.0
2017-May-27 10:25N 57°27' E 010°33'0 0.0
2017-May-27 09:13N 57°27' E 010°33'0 0.0
2017-May-27 08:46N 57°27' E 010°33'0 0.0
2017-May-27 08:25N 57°27' E 010°33'0 0.0
2017-May-27 07:04N 57°27' E 010°33'0 0.0
2017-May-27 06:34N 57°27' E 010°33'0 0.0
2017-May-27 06:22N 57°27' E 010°33'0 0.0
2017-May-27 05:40N 57°27' E 010°33'0 0.0
2017-May-27 05:28N 57°27' E 010°33'0 0.0
2017-May-27 04:52N 57°27' E 010°33'0 0.0
2017-May-27 03:52N 57°27' E 010°33'0 0.0
2017-May-27 03:13N 57°27' E 010°33'0 0.0
2017-May-27 02:40N 57°27' E 010°33'0 0.0
2017-May-27 02:22N 57°27' E 010°33'0 0.0
2017-May-27 01:52N 57°27' E 010°33'0 0.0
2017-May-27 01:10N 57°27' E 010°33'0 0.0
2017-May-27 00:46N 57°27' E 010°33'0 0.0
2017-May-27 00:04N 57°27' E 010°33'0 0.0
2017-May-26 23:55N 57°27' E 010°33'0 0.0
2017-May-26 23:22N 57°27' E 010°33'0 0.0
2017-May-26 22:58N 57°27' E 010°33'0 0.0
2017-May-26 22:28N 57°27' E 010°33'0 0.0
2017-May-26 21:52N 57°27' E 010°33'0 0.0
2017-May-26 21:22N 57°27' E 010°33'0 0.0
2017-May-26 20:52N 57°27' E 010°33'0 0.0
2017-May-26 20:28N 57°27' E 010°33'0 0.0
2017-May-26 19:40N 57°27' E 010°33'0 0.0
2017-May-26 19:28N 57°27' E 010°33'0 0.0
2017-May-26 18:28N 57°27' E 010°33'0 0.0
2017-May-26 17:46N 57°27' E 010°33'0 0.0
2017-May-26 17:25N 57°27' E 010°33'0 0.0
2017-May-26 15:58N 57°27' E 010°33'0 0.0
2017-May-26 15:25N 57°27' E 010°33'0 0.0
2017-May-26 14:55N 57°27' E 010°33'0 0.0
2017-May-26 13:43N 57°27' E 010°33'0 0.0
2017-May-26 13:28N 57°27' E 010°33'0 0.0
2017-May-26 12:37N 57°27' E 010°33'0 0.0
2017-May-26 12:28N 57°27' E 010°33'0 0.0
2017-May-26 11:58N 57°27' E 010°33'0 0.0
2017-May-26 11:22N 57°27' E 010°33'0 0.0
2017-May-26 10:55N 57°27' E 010°33'0 0.0
2017-May-26 10:28N 57°27' E 010°33'0 0.0
2017-May-26 09:58N 57°27' E 010°33'0 0.0
2017-May-26 09:13N 57°27' E 010°33'0 0.0
2017-May-26 08:58N 57°27' E 010°33'0 0.0
2017-May-26 08:13N 57°27' E 010°33'0 0.0
2017-May-26 07:43N 57°27' E 010°33'0 0.0
2017-May-26 06:13N 57°27' E 010°33'0 0.0
2017-May-26 05:55N 57°27' E 010°33'0 0.0
2017-May-26 05:22N 57°27' E 010°33'0 0.0
2017-May-26 04:58N 57°27' E 010°33'0 0.0
2017-May-26 04:04N 57°27' E 010°33'0 0.0
2017-May-26 02:55N 57°27' E 010°33'0 0.0
2017-May-26 02:19N 57°27' E 010°33'0 0.0
2017-May-26 01:58N 57°27' E 010°33'0 0.0
2017-May-26 00:40N 57°27' E 010°33'0 0.0
2017-May-25 23:40N 57°27' E 010°33'0 0.0
2017-May-25 23:25N 57°27' E 010°33'0 0.0
2017-May-25 22:58N 57°27' E 010°33'0 0.0
2017-May-25 22:28N 57°27' E 010°33'0 0.0
2017-May-25 21:04N 57°27' E 010°33'0 0.0
2017-May-25 20:40N 57°27' E 010°33'0 0.0
2017-May-25 20:25N 57°27' E 010°33'0 0.0
2017-May-25 19:40N 57°27' E 010°33'0 0.0
2017-May-25 19:19N 57°27' E 010°33'0 0.0
2017-May-25 18:37N 57°27' E 010°33'0 0.0
2017-May-25 18:19N 57°27' E 010°33'0 0.0
2017-May-25 17:58N 57°27' E 010°33'0 0.0
2017-May-25 17:25N 57°27' E 010°33'0 0.0
2017-May-25 16:49N 57°27' E 010°33'0 0.0
2017-May-25 16:16N 57°27' E 010°33'0 0.0
2017-May-25 15:22N 57°27' E 010°33'0 0.0
2017-May-25 14:34N 57°27' E 010°33'0 0.0
2017-May-25 14:28N 57°27' E 010°33'0 0.0
2017-May-25 12:49N 57°27' E 010°33'0 0.0
2017-May-25 12:13N 57°27' E 010°33'0 0.0
2017-May-25 11:58N 57°27' E 010°33'0 0.0
2017-May-25 11:28N 57°27' E 010°33'0 0.0
2017-May-25 10:49N 57°27' E 010°33'0 0.0
2017-May-25 10:28N 57°27' E 010°33'0 0.0
2017-May-25 09:52N 57°27' E 010°33'0 0.0
2017-May-25 09:16N 57°27' E 010°33'0 0.0
2017-May-25 08:55N 57°27' E 010°33'0 0.0
2017-May-25 08:25N 57°27' E 010°33'0 0.0
2017-May-25 07:58N 57°27' E 010°33'0 0.0
2017-May-25 07:28N 57°27' E 010°33'0 0.0
2017-May-25 06:55N 57°27' E 010°33'0 0.0
2017-May-25 06:25N 57°27' E 010°33'0 0.0
2017-May-25 05:58N 57°27' E 010°33'0 0.0
2017-May-25 05:04N 57°27' E 010°33'0 0.0
2017-May-25 04:58N 57°27' E 010°33'0 0.0
2017-May-25 04:28N 57°27' E 010°33'0 0.0
2017-May-25 03:43N 57°27' E 010°33'0 0.0
2017-May-25 03:13N 57°27' E 010°33'0 0.0
2017-May-25 02:22N 57°27' E 010°33'0 0.0
2017-May-25 01:46N 57°27' E 010°33'0 0.0
2017-May-25 01:28N 57°27' E 010°33'0 0.0
2017-May-25 00:46N 57°27' E 010°33'0 0.0
2017-May-25 00:28N 57°27' E 010°33'0 0.0
2017-May-24 23:52N 57°27' E 010°33'0 0.0
2017-May-24 23:28N 57°27' E 010°33'0 0.0
2017-May-24 22:58N 57°27' E 010°33'0 0.0
2017-May-24 21:43N 57°27' E 010°33'0 0.0
2017-May-24 21:22N 57°27' E 010°33'0 0.0
2017-May-24 20:55N 57°27' E 010°33'0 0.0
2017-May-24 20:28N 57°27' E 010°33'0 0.0
2017-May-24 19:58N 57°27' E 010°33'0 0.0
2017-May-24 19:22N 57°27' E 010°33'0 0.0
2017-May-24 18:58N 57°27' E 010°33'0 0.0
2017-May-24 18:28N 57°27' E 010°33'0 0.0
2017-May-24 17:58N 57°27' E 010°33'0 0.0
2017-May-24 17:28N 57°27' E 010°33'0 0.0
2017-May-24 16:58N 57°27' E 010°33'0 0.0
2017-May-24 16:28N 57°27' E 010°33'0 0.0
2017-May-24 15:46N 57°27' E 010°33'0 0.0
2017-May-24 14:58N 57°27' E 010°33'0 0.0
2017-May-24 14:28N 57°27' E 010°33'0 0.0
2017-May-24 13:28N 57°27' E 010°33'0 0.0
2017-May-24 12:37N 57°27' E 010°33'0 0.0
2017-May-24 12:25N 57°27' E 010°33'0 0.0
2017-May-24 11:43N 57°27' E 010°33'0 0.0
2017-May-24 11:27N 57°27' E 010°33'0 0.0
2017-May-24 09:09N 57°27' E 010°33'0 0.0
2017-May-24 09:00N 57°27' E 010°33'0 0.0
2017-May-24 08:15N 57°27' E 010°33'0 0.0
2017-May-24 07:54N 57°27' E 010°33'0 0.0
2017-May-24 07:30N 57°27' E 010°33'0 0.0
2017-May-24 07:00N 57°27' E 010°33'0 0.0
2017-May-24 06:21N 57°27' E 010°33'0 0.0
2017-May-24 05:54N 57°27' E 010°33'0 0.0
2017-May-24 04:24N 57°27' E 010°33'0 0.0
2017-May-24 03:54N 57°27' E 010°33'0 0.0
2017-May-24 03:30N 57°27' E 010°33'0 0.0
2017-May-24 03:00N 57°27' E 010°33'0 0.0
2017-May-24 02:27N 57°27' E 010°33'0 0.0
2017-May-24 01:03N 57°27' E 010°33'0 0.0
2017-May-24 01:00N 57°27' E 010°33'0 0.0
2017-May-24 00:27N 57°27' E 010°33'0 0.0
2017-May-23 23:57N 57°27' E 010°33'0 0.0
2017-May-23 23:24N 57°27' E 010°33'0 0.0
2017-May-23 22:00N 57°27' E 010°33'0 0.0
2017-May-23 21:09N 57°27' E 010°33'0 0.0
2017-May-23 21:00N 57°27' E 010°33'0 0.0
2017-May-23 20:03N 57°27' E 010°33'0 0.0
2017-May-23 19:54N 57°27' E 010°33'0 0.0
2017-May-23 18:48N 57°27' E 010°33'0 0.0
2017-May-23 16:30N 57°27' E 010°33'0 0.0
2017-May-23 15:57N 57°27' E 010°33'0 0.0
2017-May-23 15:30N 57°27' E 010°33'0 0.0
2017-May-23 14:15N 57°27' E 010°33'0 0.0
2017-May-23 13:24N 57°27' E 010°33'0 0.0
2017-May-23 12:24N 57°27' E 010°33'0 0.0
2017-May-23 12:00N 57°27' E 010°33'0 0.0
2017-May-23 11:18N 57°27' E 010°33'0 0.0
2017-May-23 10:00N 57°27' E 010°33'0 0.0
2017-May-23 09:30N 57°27' E 010°33'0 0.0
2017-May-23 07:36N 57°27' E 010°33'0 0.0
2017-May-23 07:27N 57°27' E 010°33'0 0.0
2017-May-23 06:57N 57°27' E 010°33'0 0.0
2017-May-23 06:30N 57°27' E 010°33'0 0.0
2017-May-23 05:54N 57°27' E 010°33'0 0.0
2017-May-23 04:00N 57°27' E 010°33'0 0.0
2017-May-23 03:27N 57°27' E 010°33'0 0.0
2017-May-23 02:57N 57°27' E 010°33'0 0.0
2017-May-23 02:30N 57°27' E 010°33'0 0.0
2017-May-23 02:00N 57°27' E 010°33'0 0.0
2017-May-22 23:24N 57°27' E 010°33'0 0.0
2017-May-22 22:48N 57°27' E 010°33'0 0.0
2017-May-22 21:54N 57°27' E 010°33'0 0.0
2017-May-22 21:21N 57°27' E 010°33'0 0.0
2017-May-22 20:57N 57°27' E 010°33'0 0.0
2017-May-22 20:30N 57°27' E 010°33'0 0.0
2017-May-22 20:00N 57°27' E 010°33'0 0.0
2017-May-22 19:21N 57°27' E 010°33'0 0.0
2017-May-22 19:00N 57°27' E 010°33'0 0.0
2017-May-22 18:30N 57°27' E 010°33'0 0.0
2017-May-22 17:51N 57°27' E 010°33'0 0.0
2017-May-22 17:30N 57°27' E 010°33'0 0.0
2017-May-22 17:00N 57°27' E 010°33'  

Dump ship's entire track history